首页
METAR-TAF:

METAR-TAF

机场 :

埃皮纳勒, 法国

纬度: 48-19-31N, 经度: 6-04-00E, 海拔: 330米

当前天气观测

该预报发布于37分钟前的01:30 UTC
风速8节,风向西北
温度 3°C
湿度 93%
气压 1006 hPa
能见度10公里或以上
阴天层高于1100英尺
小雨

METAR: LFSG 180130Z AUTO 31008KT 9999 -RA OVC011 03/02 Q1006

时间: 03:07 (02:07 UTC)


TAF: 丢失

超过4000个机场的气象观测和天气预报(METAR&TAF报告)。

可查询的气象台以黄色和红色小点在地图上表示。

将鼠标移到小点上方,可查看气象台名称。

然后点击查看天气观测和预报。

如需切换地图:点击带黑十字的绿色按钮放大地图;点击带横线的绿色按钮缩小地图;或者点击绿色箭头查看邻近地区的地图。


METAR-TAF: